createdAt,value
2023-01-11T00:02:31.119Z,88.17
2023-01-11T00:05:14.475Z,87.53
2023-01-11T00:08:04.205Z,88.34
2023-01-11T00:10:46.478Z,88.54
2023-01-11T00:13:40.142Z,87.72
2023-01-11T00:16:22.445Z,88.46
2023-01-11T00:19:11.189Z,88.26
2023-01-11T00:21:57.513Z,88.18
2023-01-11T00:24:46.192Z,87.58
2023-01-11T00:27:28.418Z,88.74
2023-01-11T00:30:17.207Z,88.49
2023-01-11T00:33:14.101Z,88.48
2023-01-11T00:36:03.418Z,87.78
2023-01-11T00:38:51.595Z,88.06
2023-01-11T00:41:57.918Z,88.02
2023-01-11T00:44:59.240Z,87.53
2023-01-11T00:47:59.617Z,87.30
2023-01-11T00:50:47.053Z,87.33
2023-01-11T00:53:35.427Z,87.25
2023-01-11T00:56:17.154Z,87.45
2023-01-11T00:59:06.155Z,87.64
2023-01-11T01:01:48.493Z,87.24
2023-01-11T01:04:38.047Z,87.79
2023-01-11T01:07:20.598Z,87.70
2023-01-11T01:10:09.046Z,87.77
2023-01-11T01:13:16.056Z,88.36
2023-01-11T01:16:06.159Z,88.20
2023-01-11T01:18:55.045Z,87.52
2023-01-11T01:21:44.456Z,88.70
2023-01-11T01:24:27.193Z,88.29
2023-01-11T01:27:18.752Z,88.32
2023-01-11T01:30:07.043Z,88.67
2023-01-11T01:32:49.433Z,87.89
2023-01-11T01:35:38.163Z,87.91
2023-01-11T01:38:20.454Z,87.53
2023-01-11T01:41:09.081Z,87.56
2023-01-11T01:44:01.461Z,87.83
2023-01-11T01:46:50.045Z,87.03
2023-01-11T01:49:39.170Z,87.58
2023-01-11T01:52:28.164Z,88.46
2023-01-11T01:55:24.128Z,88.22
2023-01-11T01:58:18.458Z,87.84
2023-01-11T02:01:00.107Z,87.86
2023-01-11T02:03:49.430Z,87.73
2023-01-11T02:06:32.134Z,87.63
2023-01-11T02:09:39.177Z,87.50
2023-01-11T02:12:30.372Z,87.01
2023-01-11T02:15:20.134Z,87.14
2023-01-11T02:18:09.260Z,87.48
2023-01-11T02:21:21.427Z,87.50
2023-01-11T02:24:19.172Z,88.15
2023-01-11T02:27:32.438Z,88.00
2023-01-11T02:30:29.175Z,87.96
2023-01-11T02:33:32.345Z,88.00
2023-01-11T02:36:27.134Z,88.07
2023-01-11T02:39:23.478Z,88.33
2023-01-11T02:43:00.517Z,88.32
2023-01-11T02:46:06.466Z,87.88
2023-01-11T02:48:48.230Z,88.79
2023-01-11T02:51:56.427Z,88.46
2023-01-11T02:54:41.169Z,89.00
2023-01-11T02:57:33.404Z,88.66
2023-01-11T03:00:17.236Z,89.17
2023-01-11T03:03:17.440Z,88.40
2023-01-11T03:06:14.192Z,88.22
2023-01-11T03:09:19.026Z,88.60
2023-01-11T03:12:26.080Z,87.57
2023-01-11T03:15:49.173Z,87.97
2023-01-11T03:18:53.430Z,87.51
2023-01-11T03:21:53.209Z,88.02
2023-01-11T03:24:46.945Z,87.64
2023-01-11T03:27:42.116Z,87.79
2023-01-11T03:30:59.183Z,87.27
2023-01-11T03:33:50.431Z,86.42
2023-01-11T03:36:42.168Z,87.04
2023-01-11T03:39:56.413Z,87.52
2023-01-11T03:42:42.168Z,87.53
2023-01-11T03:45:32.475Z,87.36
2023-01-11T03:48:18.171Z,87.45
2023-01-11T03:51:10.386Z,86.75
2023-01-11T03:53:56.155Z,87.00
2023-01-11T03:56:57.376Z,86.98
2023-01-11T03:59:40.159Z,86.64
2023-01-11T04:02:41.472Z,86.35
2023-01-11T04:05:24.133Z,86.20
2023-01-11T04:08:13.441Z,85.91
2023-01-11T04:10:55.081Z,85.72
2023-01-11T04:13:43.481Z,86.10
2023-01-11T04:16:25.159Z,86.83
2023-01-11T04:19:14.158Z,86.38
2023-01-11T04:21:56.377Z,86.27
2023-01-11T04:24:45.170Z,86.28
2023-01-11T04:27:27.401Z,86.67
2023-01-11T04:30:17.081Z,86.97
2023-01-11T04:33:00.194Z,86.49
2023-01-11T04:35:50.200Z,86.77
2023-01-11T04:38:32.911Z,86.99
2023-01-11T04:41:40.211Z,86.45
2023-01-11T04:44:22.447Z,86.62
2023-01-11T04:47:11.127Z,87.05
2023-01-11T04:49:53.390Z,87.29
2023-01-11T04:52:42.155Z,87.06
2023-01-11T04:55:24.555Z,86.86
2023-01-11T04:58:13.167Z,85.88
2023-01-11T05:00:55.364Z,85.94
2023-01-11T05:03:44.183Z,85.52
2023-01-11T05:06:26.883Z,86.30
2023-01-11T05:09:22.065Z,86.03
2023-01-11T05:12:11.112Z,86.24
2023-01-11T05:15:00.571Z,85.51
2023-01-11T05:17:43.147Z,85.31
2023-01-11T05:20:25.493Z,85.37
2023-01-11T05:23:14.082Z,85.39
2023-01-11T05:26:03.063Z,85.32
2023-01-11T05:28:45.363Z,84.87
2023-01-11T05:31:34.411Z,84.89
2023-01-11T05:34:27.172Z,84.39
2023-01-11T05:37:09.272Z,84.40
2023-01-11T05:39:58.074Z,84.27
2023-01-11T05:42:46.405Z,84.35
2023-01-11T05:45:37.109Z,84.40
2023-01-11T05:48:19.977Z,84.00
2023-01-11T05:51:11.176Z,83.41
2023-01-11T05:54:01.118Z,83.76
2023-01-11T05:56:46.843Z,83.32
2023-01-11T05:59:36.093Z,82.97
2023-01-11T06:02:18.609Z,82.54
2023-01-11T06:05:08.113Z,83.54
2023-01-11T06:07:57.099Z,83.38
2023-01-11T06:10:47.250Z,83.28
2023-01-11T06:13:35.132Z,82.81
2023-01-11T06:16:25.504Z,81.37
2023-01-11T06:19:07.072Z,81.75
2023-01-11T06:21:49.298Z,81.68
2023-01-11T06:24:38.172Z,81.88
2023-01-11T06:27:26.364Z,81.61
2023-01-11T06:30:22.171Z,80.67
2023-01-11T06:33:11.438Z,81.07
2023-01-11T06:35:54.145Z,81.05
2023-01-11T06:38:43.553Z,80.33
2023-01-11T06:41:25.016Z,80.44
2023-01-11T06:44:14.089Z,80.45
2023-01-11T06:46:56.440Z,80.22
2023-01-11T06:49:45.186Z,81.13
2023-01-11T06:52:27.399Z,80.46
2023-01-11T06:55:16.120Z,79.93
2023-01-11T06:57:58.504Z,80.40
2023-01-11T07:00:47.114Z,79.41
2023-01-11T07:03:29.500Z,79.36
2023-01-11T07:06:18.065Z,79.37
2023-01-11T07:09:00.473Z,78.47
2023-01-11T07:11:49.040Z,78.52
2023-01-11T07:14:31.352Z,78.10
2023-01-11T07:17:20.428Z,77.86
2023-01-11T07:20:02.457Z,78.01
2023-01-11T07:22:51.160Z,77.68
2023-01-11T07:25:34.361Z,77.70
2023-01-11T07:28:23.098Z,77.77
2023-01-11T07:31:11.417Z,77.78
2023-01-11T07:33:53.190Z,77.19
2023-01-11T07:36:41.367Z,77.38
2023-01-11T07:39:29.124Z,77.58
2023-01-11T07:42:41.520Z,77.28
2023-01-11T07:45:24.228Z,77.39
2023-01-11T07:48:11.585Z,77.15
2023-01-11T07:51:00.173Z,76.29
2023-01-11T07:53:48.408Z,76.59
2023-01-11T07:56:30.090Z,76.74
2023-01-11T07:59:12.795Z,77.31
2023-01-11T08:02:02.086Z,77.83
2023-01-11T08:04:50.450Z,77.99
2023-01-11T08:07:33.195Z,77.72
2023-01-11T08:10:22.309Z,77.44
2023-01-11T08:13:23.146Z,77.93
2023-01-11T08:16:12.211Z,77.42
2023-01-11T08:18:54.550Z,77.43
2023-01-11T08:21:43.081Z,77.68
2023-01-11T08:24:25.440Z,77.39
2023-01-11T08:27:14.157Z,76.45
2023-01-11T08:30:09.377Z,76.63
2023-01-11T08:32:58.437Z,76.99
2023-01-11T08:35:47.104Z,77.09
2023-01-11T08:38:35.359Z,76.85
2023-01-11T08:41:22.133Z,76.32
2023-01-11T08:44:11.706Z,76.05
2023-01-11T08:46:55.161Z,76.56
2023-01-11T08:49:44.103Z,75.91
2023-01-11T08:52:27.056Z,76.31
2023-01-11T08:55:16.367Z,76.42
2023-01-11T08:57:58.096Z,75.94
2023-01-11T09:00:46.306Z,74.95
2023-01-11T09:03:29.185Z,74.66
2023-01-11T09:06:17.490Z,75.33
2023-01-11T09:09:00.085Z,75.79
2023-01-11T09:12:09.045Z,75.05
2023-01-11T09:14:51.500Z,74.55
2023-01-11T09:17:41.164Z,75.00
2023-01-11T09:20:23.543Z,75.27
2023-01-11T09:23:12.174Z,75.06
2023-01-11T09:25:54.368Z,74.46
2023-01-11T09:28:43.027Z,74.46
2023-01-11T09:31:32.464Z,74.86
2023-01-11T09:34:16.105Z,74.10
2023-01-11T09:37:01.081Z,73.37
2023-01-11T09:39:50.015Z,74.17
2023-01-11T09:42:44.483Z,73.62
2023-01-11T09:45:42.134Z,73.50
2023-01-11T09:48:53.610Z,73.86
2023-01-11T09:51:43.143Z,73.18
2023-01-11T09:54:28.443Z,73.63
2023-01-11T09:57:39.133Z,73.22
2023-01-11T10:00:41.330Z,73.05
2023-01-11T10:03:59.093Z,73.02
2023-01-11T10:07:41.147Z,72.47
2023-01-11T10:18:25.385Z,73.15
2023-01-11T10:18:41.377Z,72.13
2023-01-11T10:21:03.097Z,71.85
2023-01-11T10:24:13.195Z,71.91
2023-01-11T10:26:58.140Z,71.97
2023-01-11T10:30:19.994Z,73.12
2023-01-11T10:33:50.025Z,73.18
2023-01-11T10:37:32.128Z,73.56
2023-01-11T10:40:41.533Z,73.67
2023-01-11T10:43:48.086Z,73.96
2023-01-11T10:46:34.632Z,74.11
2023-01-11T10:49:34.616Z,74.63
2023-01-11T10:52:41.474Z,74.16
2023-01-11T10:55:39.090Z,73.29
2023-01-11T10:58:58.133Z,73.76
2023-01-11T11:02:03.601Z,74.20
2023-01-11T11:05:15.041Z,74.54
2023-01-11T11:08:20.050Z,73.98
2023-01-11T11:11:14.079Z,74.72
2023-01-11T11:14:22.946Z,74.54
2023-01-11T11:17:45.105Z,74.79
2023-01-11T11:20:39.959Z,75.68
2023-01-11T11:23:34.133Z,74.80
2023-01-11T11:26:22.268Z,74.25
2023-01-11T11:29:10.189Z,74.02
2023-01-11T11:31:59.470Z,74.66
2023-01-11T11:34:42.069Z,75.29
2023-01-11T11:37:34.991Z,76.75
2023-01-11T11:40:43.976Z,75.67
2023-01-11T11:43:28.584Z,75.08
2023-01-11T11:46:27.041Z,75.51
2023-01-11T11:49:18.216Z,76.25
2023-01-11T11:52:08.116Z,76.26
2023-01-11T11:55:00.248Z,77.36
2023-01-11T11:57:56.070Z,78.01
2023-01-11T12:00:56.956Z,77.33
2023-01-11T12:03:40.936Z,77.87
2023-01-11T12:06:26.841Z,78.21
2023-01-11T12:09:17.992Z,78.59
2023-01-11T12:12:07.390Z,79.24
2023-01-11T12:14:48.923Z,80.26
2023-01-11T12:17:38.379Z,80.25
2023-01-11T12:20:36.061Z,80.44
2023-01-11T12:23:30.645Z,80.84
2023-01-11T12:26:27.158Z,81.21
2023-01-11T12:29:44.023Z,81.94
2023-01-11T12:32:54.085Z,81.01
2023-01-11T12:35:48.074Z,82.00
2023-01-11T12:38:46.405Z,81.90
2023-01-11T12:41:29.116Z,81.95
2023-01-11T12:44:26.023Z,81.20
2023-01-11T12:47:51.121Z,80.79
2023-01-11T12:50:46.499Z,78.96
2023-01-11T12:53:34.160Z,78.79
2023-01-11T12:57:05.308Z,79.06
2023-01-11T13:00:23.936Z,78.84
2023-01-11T13:03:33.651Z,79.18
2023-01-11T13:06:31.073Z,80.70
2023-01-11T13:09:47.092Z,80.64
2023-01-11T13:12:50.039Z,80.45
2023-01-11T13:15:53.062Z,81.01
2023-01-11T13:18:50.980Z,81.76
2023-01-11T13:21:52.110Z,81.88
2023-01-11T13:24:38.506Z,82.27
2023-01-11T13:27:31.033Z,82.55
2023-01-11T13:30:31.999Z,82.44
2023-01-11T13:33:27.990Z,82.97
2023-01-11T13:39:26.954Z,84.18
2023-01-11T13:42:20.299Z,84.27
2023-01-11T13:45:34.066Z,83.56
2023-01-11T13:48:39.964Z,83.27
2023-01-11T13:51:54.960Z,83.74
2023-01-11T13:54:54.069Z,83.55
2023-01-11T13:58:00.285Z,84.09
2023-01-11T14:00:48.962Z,83.98
2023-01-11T14:03:49.693Z,84.14
2023-01-11T14:06:52.910Z,84.42
2023-01-11T14:09:43.784Z,84.30
2023-01-11T14:12:50.894Z,84.54
2023-01-11T14:15:42.397Z,84.23
2023-01-11T14:18:45.127Z,83.65
2023-01-11T14:21:38.460Z,84.39
2023-01-11T14:24:29.009Z,84.01
2023-01-11T14:27:16.953Z,84.89
2023-01-11T14:30:17.920Z,85.16
2023-01-11T14:33:39.989Z,85.40
2023-01-11T14:36:53.605Z,85.39
2023-01-11T14:40:19.122Z,85.34
2023-01-11T14:43:16.503Z,85.43
2023-01-11T14:46:04.993Z,85.67
2023-01-11T14:49:10.599Z,85.57
2023-01-11T14:51:59.899Z,85.72
2023-01-11T14:54:55.463Z,85.95
2023-01-11T14:57:49.004Z,86.33
2023-01-11T15:00:38.007Z,85.90
2023-01-11T15:03:29.343Z,86.11
2023-01-11T15:06:25.046Z,86.14
2023-01-11T15:09:51.908Z,86.11
2023-01-11T15:12:43.150Z,85.84
2023-01-11T15:15:54.095Z,85.49
2023-01-11T15:18:38.018Z,86.08
2023-01-11T15:21:31.319Z,85.74
2023-01-11T15:24:14.066Z,85.66
2023-01-11T15:27:05.506Z,85.60
2023-01-11T15:29:53.927Z,85.56
2023-01-11T15:32:44.966Z,85.33
2023-01-11T15:35:40.064Z,85.69
2023-01-11T15:39:00.108Z,85.23
2023-01-11T15:42:05.381Z,85.58
2023-01-11T15:45:30.995Z,85.37
2023-01-11T15:48:34.370Z,85.47
2023-01-11T15:52:00.089Z,85.92
2023-01-11T15:55:15.499Z,85.50
2023-01-11T15:58:11.958Z,85.32
2023-01-11T16:01:42.315Z,85.49
2023-01-11T16:05:13.944Z,85.17
2023-01-11T16:08:29.052Z,85.39
2023-01-11T16:11:45.447Z,85.72
2023-01-11T16:15:02.930Z,84.99
2023-01-11T16:17:54.419Z,85.22
2023-01-11T16:20:36.996Z,85.06
2023-01-11T16:23:22.258Z,85.41
2023-01-11T16:26:12.873Z,84.99
2023-01-11T16:28:59.494Z,85.51
2023-01-11T16:32:07.887Z,85.56
2023-01-11T16:34:57.371Z,84.94
2023-01-11T16:37:56.911Z,84.79
2023-01-11T16:40:49.918Z,84.56
2023-01-11T16:43:37.457Z,84.64
2023-01-11T16:47:02.979Z,84.46
2023-01-11T16:49:49.951Z,84.57
2023-01-11T16:52:46.013Z,84.75
2023-01-11T16:55:37.983Z,84.81
2023-01-11T16:58:38.100Z,85.06
2023-01-11T17:01:23.415Z,84.93
2023-01-11T17:04:19.023Z,84.91
2023-01-11T17:07:08.023Z,84.52
2023-01-11T17:09:50.502Z,84.71
2023-01-11T17:12:41.023Z,84.86
2023-01-11T17:15:44.883Z,84.57
2023-01-11T17:18:33.996Z,84.91
2023-01-11T17:21:20.840Z,85.04
2023-01-11T17:24:15.926Z,84.85
2023-01-11T17:27:08.948Z,84.63
2023-01-11T17:29:58.975Z,85.27
2023-01-11T17:33:00.079Z,84.55
2023-01-11T17:35:50.430Z,83.99
2023-01-11T17:38:34.073Z,84.83
2023-01-11T17:41:38.354Z,84.87
2023-01-11T17:44:54.028Z,85.07
2023-01-11T17:47:38.799Z,85.45
2023-01-11T17:50:45.161Z,84.95
2023-01-11T17:53:38.555Z,85.06
2023-01-11T17:56:55.921Z,85.13
2023-01-11T17:59:38.400Z,84.85
2023-01-11T18:02:31.031Z,85.46
2023-01-11T18:05:19.338Z,85.06
2023-01-11T18:08:16.932Z,85.22
2023-01-11T18:11:05.355Z,85.38
2023-01-11T18:13:47.991Z,84.88
2023-01-11T18:16:30.610Z,84.75
2023-01-11T18:19:38.919Z,84.51
2023-01-11T18:22:51.350Z,84.79
2023-01-11T18:25:42.525Z,84.50
2023-01-11T18:28:34.014Z,84.51
2023-01-11T18:31:22.925Z,84.38
2023-01-11T18:34:05.898Z,84.49
2023-01-11T18:36:48.294Z,84.68
2023-01-11T18:39:36.986Z,85.09
2023-01-11T18:42:24.232Z,84.94
2023-01-11T18:45:13.007Z,85.28
2023-01-11T18:47:55.394Z,85.60
2023-01-11T18:50:44.027Z,85.33
2023-01-11T18:53:26.293Z,85.99
2023-01-11T18:56:14.985Z,85.75
2023-01-11T18:58:57.369Z,85.58
2023-01-11T19:01:58.650Z,85.62
2023-01-11T19:04:50.051Z,85.71
2023-01-11T19:07:34.486Z,85.51
2023-01-11T19:10:26.874Z,85.13
2023-01-11T19:13:15.990Z,85.00
2023-01-11T19:16:04.404Z,85.46
2023-01-11T19:18:46.984Z,85.12
2023-01-11T19:21:36.330Z,85.22
2023-01-11T19:24:18.924Z,85.38
2023-01-11T19:27:01.471Z,85.59
2023-01-11T19:29:50.084Z,85.54
2023-01-11T19:32:39.249Z,85.52
2023-01-11T19:35:21.900Z,84.88
2023-01-11T19:38:11.057Z,84.67
2023-01-11T19:40:54.509Z,84.43
2023-01-11T19:43:43.987Z,85.02
2023-01-11T19:46:32.100Z,85.24
2023-01-11T19:49:21.006Z,84.88
2023-01-11T19:52:03.357Z,85.17
2023-01-11T19:54:53.024Z,85.90
2023-01-11T19:57:35.331Z,85.12
2023-01-11T20:00:25.073Z,85.26
2023-01-11T20:03:07.552Z,85.36
2023-01-11T20:05:55.920Z,85.64
2023-01-11T20:08:39.582Z,86.06
2023-01-11T20:11:27.986Z,85.45
2023-01-11T20:14:17.006Z,84.77
2023-01-11T20:16:59.233Z,85.59
2023-01-11T20:19:47.954Z,85.59
2023-01-11T20:22:30.640Z,85.38
2023-01-11T20:25:20.930Z,85.55
2023-01-11T20:28:09.889Z,85.82
2023-01-11T20:31:06.951Z,85.96
2023-01-11T20:33:56.012Z,85.90
2023-01-11T20:36:38.272Z,86.34
2023-01-11T20:39:26.956Z,86.80
2023-01-11T20:42:09.945Z,85.92
2023-01-11T20:44:58.915Z,85.56
2023-01-11T20:47:47.841Z,84.96
2023-01-11T20:50:30.213Z,84.96
2023-01-11T20:53:18.922Z,84.93
2023-01-11T20:56:05.196Z,85.12
2023-01-11T20:58:58.905Z,84.42
2023-01-11T21:01:41.643Z,84.05
2023-01-11T21:04:32.965Z,85.09
2023-01-11T21:07:21.410Z,85.51
2023-01-11T21:10:03.290Z,84.96
2023-01-11T21:12:53.693Z,85.05
2023-01-11T21:15:36.882Z,85.25
2023-01-11T21:18:25.835Z,84.49
2023-01-11T21:21:08.268Z,84.21
2023-01-11T21:23:56.976Z,83.95
2023-01-11T21:26:40.280Z,84.31
2023-01-11T21:29:29.004Z,85.01
2023-01-11T21:32:17.235Z,84.61
2023-01-11T21:34:59.118Z,84.95
2023-01-11T21:37:47.187Z,84.06
2023-01-11T21:40:28.923Z,85.36
2023-01-11T21:43:21.900Z,84.33
2023-01-11T21:46:04.410Z,84.40
2023-01-11T21:48:52.806Z,83.44
2023-01-11T21:51:35.622Z,84.31
2023-01-11T21:54:26.923Z,83.01
2023-01-11T21:57:09.276Z,83.39
2023-01-11T21:59:58.003Z,83.12
2023-01-11T22:02:47.348Z,82.91
2023-01-11T22:05:35.955Z,82.46
2023-01-11T22:08:18.316Z,82.71
2023-01-11T22:11:07.991Z,82.56
2023-01-11T22:13:51.258Z,83.36
2023-01-11T22:16:41.111Z,83.79
2023-01-11T22:19:23.282Z,83.81
2023-01-11T22:22:11.950Z,83.88
2023-01-11T22:24:54.388Z,84.23
2023-01-11T22:27:42.930Z,84.15
2023-01-11T22:30:25.250Z,84.84
2023-01-11T22:33:14.966Z,84.31
2023-01-11T22:36:06.222Z,83.55
2023-01-11T22:38:54.857Z,84.20
2023-01-11T22:41:43.906Z,84.14
2023-01-11T22:44:26.081Z,84.60
2023-01-11T22:47:07.952Z,84.83
2023-01-11T22:49:54.967Z,84.34
2023-01-11T22:52:43.999Z,84.50
2023-01-11T22:55:26.184Z,84.80
2023-01-11T22:58:14.950Z,84.02
2023-01-11T23:00:57.207Z,84.02
2023-01-11T23:03:47.041Z,83.83
2023-01-11T23:06:34.326Z,84.00
2023-01-11T23:09:23.933Z,84.57
2023-01-11T23:12:24.695Z,84.45
2023-01-11T23:15:13.930Z,84.68
2023-01-11T23:17:56.323Z,84.79
2023-01-11T23:20:44.928Z,85.09
2023-01-11T23:23:27.251Z,85.20
2023-01-11T23:26:15.790Z,84.78
2023-01-11T23:28:58.152Z,84.32
2023-01-11T23:31:52.994Z,84.61
2023-01-11T23:34:35.155Z,84.19
2023-01-11T23:37:24.328Z,84.04
2023-01-11T23:40:13.273Z,84.41
2023-01-11T23:42:55.025Z,83.33
2023-01-11T23:45:38.712Z,83.36
2023-01-11T23:48:27.870Z,83.88
2023-01-11T23:51:10.159Z,83.52
2023-01-11T23:53:58.963Z,84.21
2023-01-11T23:56:41.392Z,84.33
2023-01-11T23:59:30.037Z,83.93
